Time;durP1;ratioP1;P1;durP2;ratioP2;P2;SDS_P1;SDS_P2;PMS_P1;PMS_P2;Temp;Humidity;BMP_temperature;BMP_pressure;BME280_temperature;BME280_humidity;BME280_pressure;Samples;Min_cycle;Max_cycle;Signal;HPM_P1;HPM_P2
2023/08/31 00:01:39;;;;;;;10.95;2.50;;;9.80;99.90;;;;;;4986660;28;20117;-75
2023/08/31 00:04:08;;;;;;;4.50;2.17;;;9.80;99.90;;;;;;4991765;28;20042;-75
2023/08/31 00:06:34;;;;;;;5.22;2.08;;;9.80;99.90;;;;;;4988200;28;20050;-75
2023/08/31 00:08:59;;;;;;;3.53;2.20;;;9.80;99.90;;;;;;4968931;28;20053;-75
2023/08/31 00:11:25;;;;;;;5.20;1.95;;;9.90;99.90;;;;;;4995389;28;20666;-75
2023/08/31 00:13:52;;;;;;;3.50;2.20;;;9.90;99.90;;;;;;5000251;28;20500;-75
2023/08/31 00:16:23;;;;;;;4.85;2.10;;;10.00;99.90;;;;;;4980859;28;20037;-75
2023/08/31 00:18:49;;;;;;;4.43;2.33;;;10.00;99.90;;;;;;4988205;28;20080;-75
2023/08/31 00:21:15;;;;;;;7.65;2.42;;;10.10;99.90;;;;;;4985522;28;20113;-75
2023/08/31 00:23:41;;;;;;;4.22;2.40;;;10.10;99.90;;;;;;4985931;28;20046;-75
2023/08/31 00:26:06;;;;;;;4.80;2.10;;;10.10;99.90;;;;;;5001935;28;20433;-75
2023/08/31 00:28:32;;;;;;;6.32;2.33;;;10.10;99.90;;;;;;4987390;28;20057;-76
2023/08/31 00:31:04;;;;;;;5.82;1.85;;;10.20;99.90;;;;;;4987790;28;20052;-76
2023/08/31 00:33:30;;;;;;;5.18;2.05;;;10.20;99.90;;;;;;4996294;28;20497;-75
2023/08/31 00:36:03;;;;;;;6.28;2.20;;;10.20;99.90;;;;;;4972835;28;20109;-75
2023/08/31 00:38:28;;;;;;;6.25;2.35;;;10.10;99.90;;;;;;4982611;28;20077;-75
2023/08/31 00:40:54;;;;;;;7.07;2.20;;;10.10;99.90;;;;;;4976878;28;20066;-75
2023/08/31 00:43:20;;;;;;;6.30;2.28;;;10.00;99.90;;;;;;4971866;28;20050;-75
2023/08/31 00:45:48;;;;;;;6.78;2.42;;;9.90;99.90;;;;;;5002191;28;20441;-75
2023/08/31 00:48:19;;;;;;;3.22;1.90;;;9.90;99.90;;;;;;4965573;28;20129;-75
2023/08/31 00:50:46;;;;;;;4.43;2.20;;;9.80;99.90;;;;;;4987168;28;20046;-75
2023/08/31 00:53:12;;;;;;;8.02;2.28;;;9.80;99.90;;;;;;4971683;28;20520;-75
2023/08/31 00:55:41;;;;;;;4.80;2.05;;;9.70;99.90;;;;;;4989970;28;20045;-75
2023/08/31 00:58:09;;;;;;;7.88;2.10;;;9.70;99.90;;;;;;4986641;28;20046;-75
2023/08/31 01:00:55;;;;;;;7.65;2.88;;;9.70;99.90;;;;;;4990205;28;20408;-76
2023/08/31 01:03:35;;;;;;;4.87;2.23;;;9.60;99.90;;;;;;4990464;28;20043;-75
2023/08/31 01:06:27;;;;;;;6.72;1.73;;;9.70;99.90;;;;;;4986685;28;20323;-75
2023/08/31 01:09:07;;;;;;;5.00;1.58;;;9.60;99.90;;;;;;5003525;28;20392;-75
2023/08/31 01:11:41;;;;;;;3.22;1.58;;;9.60;99.90;;;;;;5003692;28;20030;-75
2023/08/31 01:14:19;;;;;;;5.57;2.00;;;9.50;99.90;;;;;;4967904;28;20552;-75
2023/08/31 01:16:49;;;;;;;6.18;1.50;;;9.50;99.90;;;;;;4996776;28;20089;-75
2023/08/31 01:19:50;;;;;;;4.03;1.75;;;9.50;99.90;;;;;;4974921;28;20073;-75
2023/08/31 01:22:42;;;;;;;3.40;1.45;;;9.50;99.90;;;;;;4997378;28;20511;-75
2023/08/31 01:25:09;;;;;;;4.70;1.60;;;9.40;99.90;;;;;;4987665;28;20540;-75
2023/08/31 01:27:36;;;;;;;5.28;1.60;;;9.40;99.90;;;;;;4984006;28;20405;-75
2023/08/31 01:30:03;;;;;;;3.25;1.70;;;9.30;99.90;;;;;;4986842;28;20061;-75
2023/08/31 01:32:29;;;;;;;3.00;1.58;;;9.30;99.90;;;;;;4972612;28;20030;-75
2023/08/31 01:34:57;;;;;;;4.25;1.92;;;9.20;99.90;;;;;;4987022;28;20046;-75
2023/08/31 01:37:47;;;;;;;6.57;2.10;;;9.20;99.90;;;;;;4981042;28;20099;-75
2023/08/31 01:40:23;;;;;;;3.58;1.70;;;9.10;99.90;;;;;;4987638;28;20070;-74
2023/08/31 01:42:49;;;;;;;;;;;9.10;99.90;;;;;;4974246;28;20038;-75
2023/08/31 01:45:22;;;;;;;5.75;2.00;;;9.00;99.90;;;;;;4985462;28;19992;-74
2023/08/31 01:47:48;;;;;;;6.55;1.90;;;9.00;99.90;;;;;;4989808;28;20108;-75
2023/08/31 01:50:13;;;;;;;4.55;1.95;;;9.00;99.90;;;;;;4984888;28;20712;-75
2023/08/31 01:52:39;;;;;;;3.33;1.83;;;9.00;99.90;;;;;;4970040;28;20041;-75
2023/08/31 01:55:06;;;;;;;5.07;2.00;;;8.90;99.90;;;;;;4986531;28;20401;-75
2023/08/31 01:57:32;;;;;;;8.05;1.77;;;9.00;99.90;;;;;;4986570;28;20113;-75
2023/08/31 01:59:58;;;;;;;3.80;1.70;;;8.90;99.90;;;;;;4986687;28;20042;-75
2023/08/31 02:02:24;;;;;;;2.63;1.77;;;9.00;99.90;;;;;;4985466;28;20053;-75
2023/08/31 02:04:51;;;;;;;3.45;2.00;;;8.90;99.90;;;;;;4985996;28;20125;-75
2023/08/31 02:07:17;;;;;;;6.93;2.25;;;8.90;99.90;;;;;;5002396;28;20049;-75
2023/08/31 02:09:42;;;;;;;5.47;1.73;;;8.90;99.90;;;;;;4965956;28;20050;-75
2023/08/31 02:12:09;;;;;;;5.32;1.80;;;8.90;99.90;;;;;;4970443;28;20034;-74
2023/08/31 02:14:35;;;;;;;2.45;1.52;;;8.80;99.90;;;;;;5001472;28;20184;-75
2023/08/31 02:17:01;;;;;;;3.65;1.55;;;8.80;99.90;;;;;;4999308;28;20050;-75
2023/08/31 02:19:26;;;;;;;2.58;1.60;;;8.80;99.90;;;;;;4986727;28;20049;-75
2023/08/31 02:21:52;;;;;;;3.35;1.30;;;8.80;99.90;;;;;;4986349;28;20042;-75
2023/08/31 02:24:17;;;;;;;4.72;1.20;;;8.80;99.90;;;;;;4984380;28;20045;-75
2023/08/31 02:26:43;;;;;;;2.35;1.30;;;8.80;99.90;;;;;;5001629;28;20539;-75
2023/08/31 02:29:09;;;;;;;3.17;1.40;;;8.70;99.90;;;;;;4962996;28;1081589;-75
2023/08/31 02:31:34;;;;;;;5.18;1.77;;;8.70;99.90;;;;;;4984385;28;20046;-75
2023/08/31 02:34:00;;;;;;;2.53;1.60;;;8.70;99.90;;;;;;4986259;28;20038;-75
2023/08/31 02:36:26;;;;;;;2.72;1.50;;;8.60;99.90;;;;;;4982468;28;20386;-75
2023/08/31 02:38:52;;;;;;;5.13;1.80;;;8.70;99.90;;;;;;5001999;28;20074;-75
2023/08/31 02:41:18;;;;;;;4.38;1.60;;;8.70;99.90;;;;;;4986400;28;20042;-75
2023/08/31 02:43:44;;;;;;;4.80;1.63;;;8.80;99.90;;;;;;4983015;28;20052;-75
2023/08/31 02:46:10;;;;;;;5.80;1.63;;;8.80;99.90;;;;;;4986588;28;20501;-75
2023/08/31 02:48:35;;;;;;;5.75;2.10;;;8.70;99.90;;;;;;4981719;28;20734;-75
2023/08/31 02:51:02;;;;;;;4.35;1.77;;;8.70;99.90;;;;;;4985676;28;20054;-75
2023/08/31 02:53:31;;;;;;;4.10;2.10;;;8.70;99.90;;;;;;5011238;28;20046;-75
2023/08/31 02:55:57;;;;;;;5.60;2.20;;;8.70;99.90;;;;;;4984306;28;20037;-75
2023/08/31 02:58:23;;;;;;;6.43;2.55;;;8.80;99.90;;;;;;4986467;28;20041;-75
2023/08/31 03:00:49;;;;;;;5.38;3.00;;;8.80;99.90;;;;;;4988459;28;20046;-75
2023/08/31 03:03:17;;;;;;;5.90;2.63;;;8.80;99.90;;;;;;4988542;28;20042;-75
2023/08/31 03:05:44;;;;;;;5.97;2.80;;;8.90;99.90;;;;;;4988742;28;20045;-75
2023/08/31 03:08:10;;;;;;;3.78;2.90;;;8.90;99.90;;;;;;4985352;28;20054;-75
2023/08/31 03:10:36;;;;;;;6.80;3.17;;;8.90;99.90;;;;;;4968540;28;20049;-75
2023/08/31 03:13:02;;;;;;;8.43;3.10;;;8.90;99.90;;;;;;4988181;28;20038;-75
2023/08/31 03:15:28;;;;;;;4.95;3.03;;;8.90;99.90;;;;;;5001885;28;20038;-75
2023/08/31 03:17:53;;;;;;;5.95;3.10;;;8.90;99.90;;;;;;4986869;28;20038;-75
2023/08/31 03:20:19;;;;;;;4.38;2.65;;;8.90;99.90;;;;;;4974427;28;20041;-75
2023/08/31 03:22:44;;;;;;;7.53;3.08;;;9.00;99.90;;;;;;4989687;28;20100;-75
2023/08/31 03:25:10;;;;;;;6.10;2.90;;;9.10;99.90;;;;;;4989825;28;20046;-76
2023/08/31 03:27:36;;;;;;;5.00;2.72;;;9.10;99.90;;;;;;5002405;28;20043;-75
2023/08/31 03:30:03;;;;;;;6.60;2.70;;;9.10;99.90;;;;;;4988703;28;20046;-75
2023/08/31 03:32:29;;;;;;;5.93;3.30;;;9.10;99.90;;;;;;4988836;28;20049;-75
2023/08/31 03:34:54;;;;;;;7.75;3.08;;;9.20;99.90;;;;;;4984313;28;20030;-75
2023/08/31 03:37:21;;;;;;;5.70;3.42;;;9.20;99.90;;;;;;5006207;28;20034;-75
2023/08/31 03:39:50;;;;;;;5.35;2.97;;;9.30;99.90;;;;;;5005206;28;20507;-76
2023/08/31 03:42:16;;;;;;;7.70;3.20;;;9.50;99.90;;;;;;4972129;28;20057;-75
2023/08/31 03:44:41;;;;;;;8.02;3.70;;;9.60;99.90;;;;;;5003086;28;20404;-75
2023/08/31 03:47:07;;;;;;;4.55;3.22;;;9.70;99.90;;;;;;4990868;28;20068;-75
2023/08/31 03:49:34;;;;;;;6.25;3.88;;;9.70;99.90;;;;;;4990272;28;20544;-76
2023/08/31 03:52:00;;;;;;;6.97;3.47;;;9.70;99.90;;;;;;4987046;28;20038;-75
2023/08/31 03:54:26;;;;;;;5.45;3.72;;;9.80;99.90;;;;;;4987888;28;20420;-75
2023/08/31 03:56:51;;;;;;;4.97;3.00;;;9.80;99.90;;;;;;4988204;28;20084;-75
2023/08/31 03:59:18;;;;;;;4.32;3.58;;;9.90;99.90;;;;;;4989609;28;20050;-75
2023/08/31 04:01:43;;;;;;;6.75;3.65;;;9.80;99.90;;;;;;5002302;28;20042;-76
2023/08/31 04:04:09;;;;;;;6.15;3.95;;;9.80;99.90;;;;;;4987773;28;20068;-76
2023/08/31 04:06:35;;;;;;;9.18;4.25;;;10.10;99.90;;;;;;4988292;28;20046;-75
2023/08/31 04:09:00;;;;;;;8.07;4.40;;;10.10;99.90;;;;;;5001384;28;20049;-75
2023/08/31 04:11:26;;;;;;;6.55;4.80;;;10.00;99.90;;;;;;4989273;28;20038;-75
2023/08/31 04:13:52;;;;;;;7.55;4.80;;;10.10;99.90;;;;;;4997006;28;20127;-75
2023/08/31 04:16:18;;;;;;;7.55;4.60;;;10.10;99.90;;;;;;4999139;28;20057;-75
2023/08/31 04:18:45;;;;;;;7.93;5.28;;;10.10;99.90;;;;;;5000426;28;20777;-75
2023/08/31 04:21:13;;;;;;;7.65;4.68;;;10.20;99.90;;;;;;4998452;28;20049;-75
2023/08/31 04:23:39;;;;;;;7.53;5.50;;;10.20;99.90;;;;;;4982866;28;20405;-74
2023/08/31 04:26:12;;;;;;;7.28;5.07;;;10.20;99.90;;;;;;4994390;28;20034;-75
2023/08/31 04:28:39;;;;;;;7.28;5.57;;;10.30;99.90;;;;;;5003565;28;20050;-75
2023/08/31 04:31:07;;;;;;;10.25;5.82;;;10.30;99.90;;;;;;4976195;28;20054;-75
2023/08/31 04:33:34;;;;;;;7.75;5.28;;;10.20;99.90;;;;;;4989521;28;20045;-75
2023/08/31 04:35:59;;;;;;;8.05;5.50;;;10.30;99.90;;;;;;4961164;28;20046;-75
2023/08/31 04:38:25;;;;;;;8.30;6.07;;;10.20;99.90;;;;;;4992143;28;20061;-75
2023/08/31 04:40:51;;;;;;;8.25;5.38;;;10.20;99.90;;;;;;4987715;28;20066;-75
2023/08/31 04:43:16;;;;;;;8.98;5.65;;;10.20;99.90;;;;;;4987899;28;20054;-75
2023/08/31 04:45:42;;;;;;;9.35;5.32;;;10.10;99.90;;;;;;4965350;28;20058;-75
2023/08/31 04:48:08;;;;;;;10.60;6.50;;;10.10;99.90;;;;;;5001482;28;20044;-75
2023/08/31 04:50:34;;;;;;;13.95;6.18;;;10.10;99.90;;;;;;5003837;28;20038;-75
2023/08/31 04:52:59;;;;;;;11.88;6.40;;;10.00;99.90;;;;;;4989064;28;21848;-75
2023/08/31 04:55:25;;;;;;;9.90;5.85;;;10.00;99.90;;;;;;4985934;28;20074;-75
2023/08/31 04:57:51;;;;;;;13.20;6.53;;;10.00;99.90;;;;;;4985115;28;20610;-75
2023/08/31 05:00:17;;;;;;;16.17;6.47;;;10.00;99.90;;;;;;4986824;28;20046;-75
2023/08/31 05:02:43;;;;;;;12.05;6.25;;;10.00;99.90;;;;;;4986058;28;20038;-75
2023/08/31 05:05:09;;;;;;;12.10;6.53;;;9.90;99.90;;;;;;5003319;28;20049;-75
2023/08/31 05:07:34;;;;;;;12.88;6.00;;;10.00;99.90;;;;;;4991545;28;20038;-74
2023/08/31 05:10:00;;;;;;;10.30;6.30;;;10.00;99.90;;;;;;5000260;28;21766;-75
2023/08/31 05:12:25;;;;;;;10.45;5.82;;;10.00;99.90;;;;;;4987404;28;20046;-74
2023/08/31 05:14:51;;;;;;;8.75;5.85;;;10.00;99.90;;;;;;4985767;28;20121;-74
2023/08/31 05:17:17;;;;;;;8.20;6.07;;;10.10;99.90;;;;;;5000191;28;20118;-75
2023/08/31 05:19:42;;;;;;;8.95;5.50;;;10.10;99.90;;;;;;4986121;28;20046;-73
2023/08/31 05:22:08;;;;;;;10.93;6.28;;;10.00;99.90;;;;;;4972236;28;20068;-75
2023/08/31 05:24:33;;;;;;;12.63;6.93;;;10.10;99.90;;;;;;4999602;28;20046;-74
2023/08/31 05:26:59;;;;;;;11.63;6.60;;;10.10;99.90;;;;;;4990266;28;20501;-75
2023/08/31 05:29:25;;;;;;;11.35;6.57;;;10.10;99.90;;;;;;4985691;28;20101;-75
2023/08/31 05:31:52;;;;;;;10.63;6.10;;;10.20;99.90;;;;;;4970874;28;20066;-75
2023/08/31 05:34:21;;;;;;;9.30;6.10;;;10.20;99.90;;;;;;4987481;28;20038;-75
2023/08/31 05:36:46;;;;;;;12.27;6.30;;;10.20;99.90;;;;;;4986869;28;20640;-75
2023/08/31 05:39:12;;;;;;;10.00;6.05;;;10.30;99.90;;;;;;4987250;28;20074;-75
2023/08/31 05:41:40;;;;;;;10.20;6.00;;;10.50;99.90;;;;;;5001175;28;20039;-75
2023/08/31 05:44:06;;;;;;;9.45;6.15;;;10.50;99.90;;;;;;4987286;28;20046;-74
2023/08/31 05:46:32;;;;;;;8.05;5.78;;;10.60;99.90;;;;;;4987699;28;20093;-75
2023/08/31 05:48:58;;;;;;;10.20;6.47;;;10.70;99.90;;;;;;5004402;28;20043;-75
2023/08/31 05:51:24;;;;;;;7.55;5.18;;;10.70;99.90;;;;;;4970550;28;20042;-75
2023/08/31 05:53:49;;;;;;;8.85;5.18;;;10.80;99.90;;;;;;4970658;28;20084;-75
2023/08/31 05:56:15;;;;;;;11.25;6.13;;;10.90;99.90;;;;;;4986935;28;20070;-75
2023/08/31 05:58:41;;;;;;;7.57;5.28;;;11.00;99.90;;;;;;4967640;28;20405;-76
2023/08/31 06:01:07;;;;;;;7.05;4.68;;;11.10;99.90;;;;;;4983236;28;20048;-75
2023/08/31 06:03:32;;;;;;;9.93;4.90;;;11.10;99.90;;;;;;5000815;28;20394;-76
2023/08/31 06:05:59;;;;;;;10.02;4.80;;;11.20;99.90;;;;;;4986946;28;20136;-75
2023/08/31 06:08:24;;;;;;;7.68;4.68;;;11.30;99.90;;;;;;4971599;28;20760;-75
2023/08/31 06:10:50;;;;;;;6.60;4.32;;;11.30;99.90;;;;;;4969424;28;20101;-75
2023/08/31 06:13:16;;;;;;;8.48;4.22;;;11.50;99.90;;;;;;4971474;28;20473;-75
2023/08/31 06:15:42;;;;;;;7.63;4.15;;;11.50;99.90;;;;;;5004080;28;20031;-75
2023/08/31 06:18:10;;;;;;;6.13;3.90;;;11.50;99.90;;;;;;4987419;28;20580;-74
2023/08/31 06:20:36;;;;;;;6.43;3.60;;;11.60;99.90;;;;;;4970718;28;20496;-75
2023/08/31 06:23:02;;;;;;;5.85;3.45;;;11.60;99.90;;;;;;5002156;28;20066;-75
2023/08/31 06:25:28;;;;;;;6.72;3.42;;;11.60;99.90;;;;;;5003292;28;20493;-74
2023/08/31 06:27:54;;;;;;;6.53;3.47;;;11.60;99.90;;;;;;4968289;28;20086;-75
2023/08/31 06:30:20;;;;;;;8.73;3.38;;;11.70;99.90;;;;;;4998272;28;20065;-75
2023/08/31 06:32:49;;;;;;;4.68;2.80;;;11.70;99.90;;;;;;5001272;28;20379;-75
2023/08/31 06:35:15;;;;;;;5.63;2.90;;;11.80;99.90;;;;;;4986549;28;20068;-75
2023/08/31 06:37:41;;;;;;;4.30;2.80;;;11.80;99.90;;;;;;4987023;28;20034;-75
2023/08/31 06:40:08;;;;;;;7.20;2.92;;;11.90;99.90;;;;;;4988104;28;20439;-75
2023/08/31 06:42:37;;;;;;;5.45;2.63;;;11.90;99.90;;;;;;4986287;28;20046;-75
2023/08/31 06:45:07;;;;;;;5.40;2.67;;;11.80;99.90;;;;;;4984136;28;20116;-75
2023/08/31 06:47:33;;;;;;;6.07;2.45;;;11.90;99.90;;;;;;4972582;28;20558;-74
2023/08/31 06:49:59;;;;;;;4.20;2.00;;;12.00;99.90;;;;;;4981683;28;20053;-75
2023/08/31 06:52:28;;;;;;;4.97;2.50;;;12.00;99.90;;;;;;4962010;28;20049;-75
2023/08/31 06:54:56;;;;;;;3.28;1.83;;;12.00;99.90;;;;;;4993208;28;20053;-75
2023/08/31 06:57:23;;;;;;;3.53;1.83;;;12.10;99.90;;;;;;4977250;28;20069;-74
2023/08/31 06:59:49;;;;;;;3.38;1.90;;;12.10;99.90;;;;;;4995611;28;20583;-74
2023/08/31 07:02:15;;;;;;;3.45;1.70;;;12.20;99.90;;;;;;4987444;28;20050;-74
2023/08/31 07:04:40;;;;;;;5.72;1.63;;;12.20;99.90;;;;;;4990049;28;20169;-75
2023/08/31 07:07:08;;;;;;;4.20;1.42;;;12.30;99.90;;;;;;4988654;28;20125;-74
2023/08/31 07:09:34;;;;;;;4.95;1.40;;;12.40;99.90;;;;;;4973606;28;20042;-74
2023/08/31 07:12:01;;;;;;;4.35;1.50;;;12.40;99.90;;;;;;4994334;28;20064;-73
2023/08/31 07:14:27;;;;;;;3.83;1.85;;;12.50;99.90;;;;;;4986836;28;20121;-74
2023/08/31 07:16:52;;;;;;;5.40;1.77;;;12.60;99.90;;;;;;4992965;28;20126;-74
2023/08/31 07:19:18;;;;;;;3.08;1.35;;;12.60;99.90;;;;;;4991021;28;20045;-73
2023/08/31 07:21:44;;;;;;;5.22;1.48;;;12.70;99.90;;;;;;4999995;28;20042;-74
2023/08/31 07:24:09;;;;;;;2.95;1.35;;;12.80;99.90;;;;;;5003975;28;20046;-74
2023/08/31 07:26:35;;;;;;;3.60;1.33;;;12.90;99.90;;;;;;5003197;28;20104;-74
2023/08/31 07:29:04;;;;;;;2.15;1.20;;;13.10;99.90;;;;;;4989491;28;20443;-74
2023/08/31 07:31:31;;;;;;;2.45;1.20;;;13.20;99.90;;;;;;4991481;28;20148;-74
2023/08/31 07:33:57;;;;;;;4.82;1.20;;;13.20;99.90;;;;;;5005768;28;20508;-76
2023/08/31 07:36:22;;;;;;;3.40;1.15;;;13.20;99.90;;;;;;4989940;28;20034;-76
2023/08/31 07:38:48;;;;;;;3.90;1.20;;;13.20;99.90;;;;;;4989288;28;20433;-77
2023/08/31 07:41:13;;;;;;;3.03;1.35;;;13.30;99.90;;;;;;4990790;28;20046;-76
2023/08/31 07:43:39;;;;;;;3.45;1.30;;;13.30;99.90;;;;;;4985089;28;20673;-76
2023/08/31 07:46:05;;;;;;;9.57;1.52;;;13.40;99.90;;;;;;4988362;28;20078;-76
2023/08/31 07:48:30;;;;;;;2.25;1.13;;;13.40;99.90;;;;;;4985630;28;20409;-77
2023/08/31 07:50:56;;;;;;;1.98;1.05;;;13.60;99.90;;;;;;4984175;28;20068;-77
2023/08/31 07:53:22;;;;;;;2.15;0.90;;;13.70;99.90;;;;;;4986657;28;20034;-76
2023/08/31 07:55:56;;;;;;;6.22;2.13;;;13.80;99.90;;;;;;4970847;28;20041;-77
2023/08/31 07:58:28;;;;;;;2.42;0.80;;;13.90;99.90;;;;;;4968034;28;20042;-78
2023/08/31 08:00:54;;;;;;;3.15;0.90;;;13.90;99.90;;;;;;4986601;28;20042;-77
2023/08/31 08:03:21;;;;;;;6.13;1.90;;;13.90;99.90;;;;;;4986075;28;20504;-77
2023/08/31 08:05:46;;;;;;;4.03;1.00;;;14.00;99.90;;;;;;4988453;28;20039;-76
2023/08/31 08:08:12;;;;;;;4.40;1.20;;;14.20;99.90;;;;;;4988746;28;20042;-77
2023/08/31 08:10:38;;;;;;;3.53;1.15;;;14.50;99.90;;;;;;4985158;28;20038;-77
2023/08/31 08:13:04;;;;;;;1.77;1.05;;;14.70;99.90;;;;;;5002230;28;20447;-77
2023/08/31 08:15:30;;;;;;;4.35;1.40;;;14.60;99.90;;;;;;4986922;28;20133;-76
2023/08/31 08:17:57;;;;;;;2.15;1.15;;;14.50;99.90;;;;;;4988328;28;20038;-76
2023/08/31 08:20:23;;;;;;;5.45;1.30;;;14.40;99.90;;;;;;4986753;28;20038;-74
2023/08/31 08:22:52;;;;;;;3.72;1.10;;;14.40;99.90;;;;;;4990784;28;20436;-74
2023/08/31 08:25:21;;;;;;;5.75;1.40;;;14.50;99.90;;;;;;4986470;28;20129;-74
2023/08/31 08:27:47;;;;;;;3.00;1.27;;;14.50;99.90;;;;;;4986009;28;20027;-74
2023/08/31 08:30:15;;;;;;;3.17;1.33;;;14.60;99.90;;;;;;4974808;28;20059;-74
2023/08/31 08:32:41;;;;;;;2.38;1.00;;;14.70;99.90;;;;;;4999911;28;20126;-74
2023/08/31 08:35:07;;;;;;;3.08;1.40;;;14.70;99.90;;;;;;4967819;28;20112;-75
2023/08/31 08:37:33;;;;;;;3.90;0.90;;;15.00;99.90;;;;;;4992919;28;20126;-75
2023/08/31 08:39:59;;;;;;;1.75;0.60;;;15.20;99.90;;;;;;4988465;28;20145;-75
2023/08/31 08:42:25;;;;;;;3.88;0.95;;;15.10;99.90;;;;;;5012206;28;20469;-75
2023/08/31 08:44:52;;;;;;;4.20;0.60;;;15.00;99.90;;;;;;4988354;28;20081;-75
2023/08/31 08:47:20;;;;;;;2.88;0.70;;;15.00;99.90;;;;;;4981707;28;20046;-76
2023/08/31 08:49:47;;;;;;;3.63;0.60;;;15.20;99.90;;;;;;4982569;28;21082;-76
2023/08/31 08:52:15;;;;;;;1.60;0.32;;;15.30;99.90;;;;;;4987233;28;20530;-77
2023/08/31 08:54:40;;;;;;;1.98;0.40;;;15.40;99.90;;;;;;4977555;28;20049;-77
2023/08/31 08:57:06;;;;;;;0.77;0.35;;;15.80;99.90;;;;;;4999178;28;20121;-77
2023/08/31 08:59:32;;;;;;;0.88;0.38;;;16.00;99.90;;;;;;4967632;28;20488;-77
2023/08/31 09:01:58;;;;;;;1.90;0.20;;;16.10;99.90;;;;;;4987778;28;20042;-77
2023/08/31 09:04:23;;;;;;;1.85;0.50;;;16.10;99.90;;;;;;4979384;28;20038;-76
2023/08/31 09:06:52;;;;;;;0.73;0.30;;;16.40;99.90;;;;;;4978274;28;20109;-76
2023/08/31 09:09:18;;;;;;;3.10;0.50;;;16.50;99.90;;;;;;4983796;28;20039;-76
2023/08/31 09:11:45;;;;;;;1.10;0.47;;;16.80;99.90;;;;;;5001055;28;20041;-76
2023/08/31 09:14:18;;;;;;;1.35;0.20;;;17.10;99.90;;;;;;4985517;28;20500;-75
2023/08/31 09:16:48;;;;;;;1.65;0.20;;;17.10;1.00;;;;;;4985924;28;20042;-76
2023/08/31 09:19:22;;;;;;;0.52;0.20;;;16.90;99.90;;;;;;4981117;28;20085;-76
2023/08/31 09:21:50;;;;;;;0.75;0.20;;;16.70;60.00;;;;;;4983615;28;20774;-75
2023/08/31 09:24:17;;;;;;;0.95;0.20;;;16.70;99.90;;;;;;5001906;28;20440;-76
2023/08/31 09:26:46;;;;;;;0.88;0.20;;;16.60;99.90;;;;;;4983747;28;20096;-75
2023/08/31 09:29:12;;;;;;;2.47;0.60;;;16.70;99.90;;;;;;4982189;28;20046;-75
2023/08/31 09:31:37;;;;;;;0.45;0.30;;;16.80;99.90;;;;;;5000787;28;20497;-75
2023/08/31 09:34:03;;;;;;;2.65;0.43;;;16.50;99.90;;;;;;4978927;28;20048;-75
2023/08/31 09:36:29;;;;;;;0.50;0.45;;;16.50;99.90;;;;;;4982060;28;20039;-75
2023/08/31 09:39:01;;;;;;;4.15;0.60;;;16.50;99.90;;;;;;4967541;28;20046;-75
2023/08/31 09:41:26;;;;;;;7.53;0.75;;;16.50;99.90;;;;;;4980061;28;20042;-77
2023/08/31 09:43:52;;;;;;;2.45;0.95;;;16.10;99.90;;;;;;4986982;28;20038;-79
2023/08/31 09:46:19;;;;;;;2.50;0.40;;;15.40;99.90;;;;;;4966453;28;20081;-77
2023/08/31 09:48:45;;;;;;;2.97;0.70;;;14.80;99.90;;;;;;5000939;28;20070;-76
2023/08/31 09:51:13;;;;;;;1.77;0.32;;;14.40;99.90;;;;;;5001026;28;20050;-76
2023/08/31 09:53:41;;;;;;;1.48;0.50;;;14.10;99.90;;;;;;4988772;28;20070;-76
2023/08/31 09:56:07;;;;;;;1.85;0.45;;;14.10;99.90;;;;;;4982154;28;20651;-78
2023/08/31 09:58:33;;;;;;;2.50;0.60;;;14.30;99.90;;;;;;4968924;28;20061;-76
2023/08/31 10:00:59;;;;;;;1.33;0.43;;;15.50;99.90;;;;;;4985813;28;20213;-76
2023/08/31 10:03:27;;;;;;;2.15;0.50;;;16.60;99.90;;;;;;4983623;28;20611;-76
2023/08/31 10:05:56;;;;;;;1.27;0.60;;;17.20;99.90;;;;;;4985248;28;20050;-77
2023/08/31 10:08:24;;;;;;;0.47;0.30;;;17.60;99.90;;;;;;5000616;28;20092;-77
2023/08/31 10:10:49;;;;;;;1.63;0.52;;;18.30;99.90;;;;;;4985008;28;20239;-76
2023/08/31 10:13:16;;;;;;;1.25;0.50;;;18.90;99.90;;;;;;4971236;28;20038;-76
2023/08/31 10:15:43;;;;;;;2.15;1.02;;;19.10;99.90;;;;;;4982458;28;20034;-77
2023/08/31 10:18:09;;;;;;;1.73;0.55;;;19.70;99.90;;;;;;4968830;28;20049;-77
2023/08/31 10:20:35;;;;;;;1.55;0.50;;;20.30;99.90;;;;;;4989478;28;20043;-76
2023/08/31 10:23:05;;;;;;;3.13;0.30;;;20.40;99.90;;;;;;4983975;28;20073;-76
2023/08/31 10:25:49;;;;;;;1.00;0.30;;;20.90;99.90;;;;;;4965929;28;20042;-76
2023/08/31 10:28:25;;;;;;;2.22;0.55;;;20.90;99.90;;;;;;4980540;28;20137;-76
2023/08/31 10:31:03;;;;;;;2.08;0.22;;;20.80;99.90;;;;;;4967437;28;20061;-77
2023/08/31 10:33:31;;;;;;;0.70;0.17;;;20.40;99.90;;;;;;4985070;28;20046;-76
2023/08/31 10:35:58;;;;;;;0.45;0.35;;;19.70;99.90;;;;;;4985258;28;20029;-77
2023/08/31 10:38:27;;;;;;;2.05;0.30;;;18.90;99.90;;;;;;4979218;28;20081;-77
2023/08/31 10:41:18;;;;;;;0.68;0.30;;;19.70;99.90;;;;;;4987791;28;20460;-76
2023/08/31 10:43:53;;;;;;;0.45;0.22;;;20.00;99.90;;;;;;4998912;28;20446;-76
2023/08/31 10:46:32;;;;;;;1.15;0.75;;;19.50;99.90;;;;;;4982888;28;20519;-77
2023/08/31 10:49:10;;;;;;;0.85;0.20;;;20.20;20.60;;;;;;4978238;28;20070;-77
2023/08/31 10:51:37;;;;;;;1.52;0.30;;;20.10;99.90;;;;;;4983717;28;20048;-77
2023/08/31 10:54:23;;;;;;;1.60;0.20;;;19.30;99.90;;;;;;4972500;28;20485;-77
2023/08/31 10:57:08;;;;;;;;;;;18.50;41.90;;;;;;4972259;28;20042;-76
2023/08/31 10:59:51;;;;;;;0.77;0.22;;;17.70;2.00;;;;;;4984848;28;19968;-77
2023/08/31 11:02:36;;;;;;;1.40;0.40;;;17.20;7.00;;;;;;4984957;28;20053;-77
2023/08/31 11:05:14;;;;;;;2.08;0.40;;;18.40;99.90;;;;;;4990388;28;20042;-78
2023/08/31 11:07:42;;;;;;;2.60;0.52;;;20.10;26.30;;;;;;5002031;28;20100;-78
2023/08/31 11:10:19;;;;;;;2.03;0.25;;;21.00;1.00;;;;;;4988647;28;20129;-78
2023/08/31 11:12:53;;;;;;;1.30;0.52;;;19.90;1.00;;;;;;4985906;28;20129;-78
2023/08/31 11:15:25;;;;;;;1.20;0.30;;;19.70;1.00;;;;;;4994199;28;20042;-79
2023/08/31 11:17:52;;;;;;;4.25;0.70;;;20.40;1.00;;;;;;4984772;28;20045;-78
2023/08/31 11:20:19;;;;;;;0.75;0.20;;;21.40;1.00;;;;;;4990397;28;20104;-78
2023/08/31 11:22:49;;;;;;;2.08;0.43;;;21.70;1.00;;;;;;4990258;28;20048;-79
2023/08/31 11:25:16;;;;;;;1.27;0.32;;;22.40;1.00;;;;;;4989978;28;20043;-79
2023/08/31 11:27:52;;;;;;;1.40;0.22;;;22.90;99.90;;;;;;4989928;28;20038;-79
2023/08/31 11:30:18;;;;;;;0.88;0.30;;;23.30;1.00;;;;;;4981072;28;20046;-78
2023/08/31 11:32:48;;;;;;;0.82;0.20;;;23.80;1.00;;;;;;4975077;28;20409;-79
2023/08/31 11:35:16;;;;;;;1.60;0.20;;;23.90;99.90;;;;;;4981324;28;20500;-79
2023/08/31 11:37:43;;;;;;;1.38;0.30;;;23.50;99.90;;;;;;4988048;28;20460;-79
2023/08/31 11:40:09;;;;;;;1.70;0.32;;;23.10;99.90;;;;;;4992772;28;20042;-79
2023/08/31 11:42:35;;;;;;;2.08;0.40;;;22.80;1.00;;;;;;4987298;28;20125;-79
2023/08/31 11:45:02;;;;;;;0.75;0.20;;;23.60;1.00;;;;;;4989978;28;20120;-77
2023/08/31 11:47:27;;;;;;;0.90;0.35;;;24.30;99.90;;;;;;4982888;28;20134;-77
2023/08/31 11:49:53;;;;;;;0.80;0.30;;;23.00;1.00;;;;;;4979507;28;20125;-77
2023/08/31 11:52:19;;;;;;;2.13;0.98;;;21.30;99.90;;;;;;4982808;28;20061;-77
2023/08/31 11:54:45;;;;;;;1.95;0.40;;;20.60;99.90;;;;;;4977749;28;20146;-76
2023/08/31 11:57:11;;;;;;;0.68;0.30;;;20.80;1.00;;;;;;4980363;28;20053;-76
2023/08/31 11:59:38;;;;;;;1.38;0.40;;;21.80;99.90;;;;;;4999434;28;20444;-77
2023/08/31 12:02:08;;;;;;;1.80;0.40;;;22.60;99.90;;;;;;4970318;28;20054;-77
2023/08/31 12:04:41;;;;;;;0.35;0.20;;;23.00;1.00;;;;;;4984635;28;20043;-76
2023/08/31 12:07:07;;;;;;;0.40;0.10;;;23.80;1.00;;;;;;4965978;28;20038;-76
2023/08/31 12:09:32;;;;;;;1.20;0.30;;;24.20;72.50;;;;;;4988446;28;20086;-76
2023/08/31 12:12:00;;;;;;;1.00;0.20;;;24.60;99.90;;;;;;4987307;28;20048;-77
2023/08/31 12:14:27;;;;;;;1.70;0.40;;;24.60;99.90;;;;;;4970327;28;20093;-76
2023/08/31 12:17:03;;;;;;;1.92;0.30;;;25.10;71.80;;;;;;4980582;28;20077;-77
2023/08/31 12:19:29;;;;;;;1.67;0.20;;;25.30;1.00;;;;;;4965230;28;20038;-77
2023/08/31 12:21:55;;;;;;;2.40;0.57;;;25.80;99.90;;;;;;4993333;28;20050;-77
2023/08/31 12:24:23;;;;;;;1.38;0.32;;;25.90;1.00;;;;;;4982378;28;20093;-76
2023/08/31 12:26:49;;;;;;;1.35;0.30;;;25.90;1.00;;;;;;4978812;28;20635;-75
2023/08/31 12:29:15;;;;;;;2.35;0.30;;;25.40;1.00;;;;;;4977885;28;20052;-76
2023/08/31 12:31:41;;;;;;;1.38;0.20;;;24.70;1.00;;;;;;4997588;28;20133;-76
2023/08/31 12:34:06;;;;;;;0.73;0.30;;;23.80;1.00;;;;;;4987738;28;20037;-76
2023/08/31 12:36:41;;;;;;;1.23;0.40;;;22.70;1.00;;;;;;4985575;28;20030;-76
2023/08/31 12:39:09;;;;;;;1.55;0.40;;;21.60;1.00;;;;;;4985465;28;20066;-76
2023/08/31 12:41:38;;;;;;;0.73;0.32;;;20.80;99.90;;;;;;4987899;28;20582;-76
2023/08/31 12:44:04;;;;;;;3.75;0.60;;;20.00;99.90;;;;;;4972267;28;20529;-78
2023/08/31 12:46:31;;;;;;;1.55;0.43;;;18.80;1.00;;;;;;4987943;28;20466;-79
2023/08/31 12:48:57;;;;;;;1.27;0.40;;;16.80;99.90;;;;;;4968842;28;20130;-77
2023/08/31 12:51:22;;;;;;;2.50;0.43;;;15.40;99.90;;;;;;4986624;28;20107;-73
2023/08/31 12:53:48;;;;;;;2.28;0.22;;;14.70;99.90;;;;;;4996289;28;20042;-76